Fairless Hills, Pennsylvania
Current Conditions -  °F | °C
As of 8:53 AM on Thursday 18 Dec 2014 (Local Time) from KTTN Reporting Station
Overcast Overcast  
Wind Chill: 29°   Ceiling: 3700
Heat Index: 36°   Visibility: 10mi
Dew Point: 22°   Wind: 9mph
Humidity: 57%   Direction: 300°WNW
Pressure: 30.04"   Gusts: NA
Location:  40.17°N, 74.85°W
Report Text: KTTN 181353Z 30008KT 10SM OVC037 02/M06 A3004 RMK AO2 SLP167 T00221056
Loading
Personal Weather Stations






























Interactive Weather Map New forecast layout! Learn more

10-Day Weather Forecast

Advertisements
Track Severe Weather on mobile